createdAt,value
2022-08-09T00:00:00.303Z,15.89
2022-08-09T00:00:54.199Z,15.87
2022-08-09T00:01:55.380Z,15.86
2022-08-09T00:02:53.066Z,15.83
2022-08-09T00:04:06.065Z,15.82
2022-08-09T00:05:03.592Z,15.80
2022-08-09T00:06:19.384Z,15.76
2022-08-09T00:06:54.204Z,15.74
2022-08-09T00:07:54.314Z,15.71
2022-08-09T00:08:57.016Z,15.71
2022-08-09T00:09:53.001Z,15.71
2022-08-09T00:10:53.379Z,15.72
2022-08-09T00:11:58.707Z,15.71
2022-08-09T00:12:53.923Z,15.67
2022-08-09T00:13:52.909Z,15.64
2022-08-09T00:14:55.902Z,15.64
2022-08-09T00:15:58.767Z,15.59
2022-08-09T00:16:53.887Z,15.59
2022-08-09T00:18:05.381Z,15.54
2022-08-09T00:20:27.784Z,15.54
2022-08-09T00:21:34.036Z,15.51
2022-08-09T00:22:35.026Z,15.51
2022-08-09T00:23:55.288Z,15.47
2022-08-09T00:24:27.863Z,15.44
2022-08-09T00:25:33.031Z,15.43
2022-08-09T00:26:29.809Z,15.39
2022-08-09T00:27:27.738Z,15.38
2022-08-09T00:28:27.839Z,15.36
2022-08-09T00:29:39.860Z,15.31
2022-08-09T00:30:27.790Z,15.25
2022-08-09T00:31:57.791Z,15.23
2022-08-09T00:32:27.776Z,15.17
2022-08-09T00:33:50.836Z,15.16
2022-08-09T00:34:27.785Z,15.13
2022-08-09T00:35:27.793Z,15.10
2022-08-09T00:36:29.515Z,15.10
2022-08-09T00:37:27.259Z,15.11
2022-08-09T00:38:27.691Z,15.11
2022-08-09T00:40:10.371Z,15.11
2022-08-09T00:40:30.340Z,15.09
2022-08-09T00:44:14.339Z,15.10
2022-08-09T00:44:16.317Z,15.10
2022-08-09T00:44:19.479Z,15.09
2022-08-09T00:44:28.725Z,15.10
2022-08-09T00:45:26.605Z,15.10
2022-08-09T00:46:55.268Z,15.07
2022-08-09T00:47:27.571Z,15.06
2022-08-09T00:48:27.803Z,15.03
2022-08-09T00:49:28.186Z,15.01
2022-08-09T00:50:26.569Z,14.95
2022-08-09T00:51:26.539Z,14.91
2022-08-09T00:52:28.128Z,14.88
2022-08-09T00:53:26.921Z,14.83
2022-08-09T00:54:31.421Z,14.81
2022-08-09T00:56:02.925Z,14.78
2022-08-09T00:56:27.710Z,14.81
2022-08-09T00:57:33.734Z,14.81
2022-08-09T00:58:27.900Z,14.78
2022-08-09T00:59:40.641Z,14.78
2022-08-09T01:00:27.446Z,14.77
2022-08-09T01:01:32.512Z,14.75
2022-08-09T01:02:27.429Z,14.75
2022-08-09T01:03:28.554Z,14.73
2022-08-09T01:04:26.420Z,14.69
2022-08-09T01:05:51.059Z,14.68
2022-08-09T01:06:35.404Z,14.64
2022-08-09T01:07:37.964Z,14.62
2022-08-09T01:08:27.613Z,14.62
2022-08-09T01:09:26.295Z,14.65
2022-08-09T01:10:28.898Z,14.64
2022-08-09T01:11:26.265Z,14.65
2022-08-09T01:12:26.264Z,14.64
2022-08-09T01:13:41.624Z,14.61
2022-08-09T01:14:28.048Z,14.61
2022-08-09T01:15:26.217Z,14.61
2022-08-09T01:16:26.195Z,14.60
2022-08-09T01:17:26.206Z,14.58
2022-08-09T01:18:29.878Z,14.60
2022-08-09T01:19:40.183Z,14.61
2022-08-09T01:20:27.179Z,14.62
2022-08-09T01:21:26.191Z,14.61
2022-08-09T01:22:27.173Z,14.60
2022-08-09T01:24:02.179Z,14.57
2022-08-09T01:24:27.825Z,14.57
2022-08-09T01:25:26.093Z,14.52
2022-08-09T01:26:26.202Z,14.50
2022-08-09T01:27:26.046Z,14.47
2022-08-09T01:28:26.228Z,14.47
2022-08-09T01:29:28.022Z,14.46
2022-08-09T01:30:33.700Z,14.43
2022-08-09T01:32:32.698Z,14.42
2022-08-09T01:32:43.907Z,14.40
2022-08-09T01:33:26.982Z,14.40
2022-08-09T01:34:26.403Z,14.40
2022-08-09T01:35:37.675Z,14.39
2022-08-09T01:36:26.942Z,14.37
2022-08-09T01:38:06.288Z,14.37
2022-08-09T01:38:26.924Z,14.40
2022-08-09T01:39:26.341Z,14.40
2022-08-09T01:40:28.535Z,14.40
2022-08-09T01:41:26.374Z,14.39
2022-08-09T01:42:25.853Z,14.33
2022-08-09T01:43:25.840Z,14.29
2022-08-09T01:44:25.831Z,14.28
2022-08-09T01:45:26.230Z,14.28
2022-08-09T01:46:26.773Z,14.29
2022-08-09T01:47:25.790Z,14.28
2022-08-09T01:48:29.720Z,14.28
2022-08-09T01:49:25.786Z,14.25
2022-08-09T01:50:36.913Z,14.22
2022-08-09T01:51:26.738Z,14.21
2022-08-09T01:52:26.739Z,14.21
2022-08-09T01:53:28.901Z,14.17
2022-08-09T01:54:27.727Z,14.15
2022-08-09T01:55:25.707Z,14.15
2022-08-09T01:56:26.046Z,14.10
2022-08-09T01:57:25.728Z,14.10
2022-08-09T01:58:25.647Z,14.09
2022-08-09T01:59:25.647Z,14.06
2022-08-09T02:00:35.565Z,14.04
2022-08-09T02:01:30.502Z,14.04
2022-08-09T02:02:30.980Z,14.06
2022-08-09T02:03:26.716Z,14.04
2022-08-09T02:04:25.556Z,14.04
2022-08-09T02:05:37.734Z,14.03
2022-08-09T02:06:26.533Z,14.02
2022-08-09T02:08:35.979Z,13.97
2022-08-09T02:08:39.998Z,13.95
2022-08-09T02:09:26.509Z,13.92
2022-08-09T02:10:29.770Z,13.92
2022-08-09T02:11:25.495Z,13.91
2022-08-09T02:12:26.467Z,13.91
2022-08-09T02:13:37.237Z,13.91
2022-08-09T02:14:26.739Z,13.91
2022-08-09T02:15:25.456Z,13.89
2022-08-09T02:16:33.662Z,13.89
2022-08-09T02:18:00.488Z,13.87
2022-08-09T02:18:26.833Z,13.84
2022-08-09T02:19:38.638Z,13.84
2022-08-09T02:20:32.506Z,13.82
2022-08-09T02:21:26.342Z,13.82
2022-08-09T02:22:31.491Z,13.81
2022-08-09T02:23:26.323Z,13.82
2022-08-09T02:24:26.866Z,13.81
2022-08-09T02:25:25.342Z,13.78
2022-08-09T02:26:27.068Z,13.79
2022-08-09T02:27:43.044Z,13.78
2022-08-09T02:28:26.312Z,13.78
2022-08-09T02:29:25.259Z,13.81
2022-08-09T02:30:26.421Z,13.81
2022-08-09T02:31:25.270Z,13.79
2022-08-09T02:32:25.203Z,13.77
2022-08-09T02:33:37.714Z,13.73
2022-08-09T02:34:40.388Z,13.70
2022-08-09T02:36:03.262Z,13.70
2022-08-09T02:36:26.315Z,13.64
2022-08-09T02:37:31.814Z,13.64
2022-08-09T02:38:28.564Z,13.63
2022-08-09T02:39:33.386Z,13.62
2022-08-09T02:40:26.990Z,13.62
2022-08-09T02:41:25.088Z,13.60
2022-08-09T02:42:25.193Z,13.60
2022-08-09T02:43:25.072Z,13.59
2022-08-09T02:44:29.596Z,13.59
2022-08-09T02:45:26.650Z,13.57
2022-08-09T02:46:25.047Z,13.57
2022-08-09T02:47:25.048Z,13.57
2022-08-09T02:48:30.481Z,13.59
2022-08-09T02:49:27.231Z,13.57
2022-08-09T02:50:26.865Z,13.55
2022-08-09T02:51:26.530Z,13.52
2022-08-09T02:52:24.968Z,13.51
2022-08-09T02:53:26.329Z,13.51
2022-08-09T02:54:24.949Z,13.48
2022-08-09T02:55:57.485Z,13.45
2022-08-09T02:56:25.903Z,13.45
2022-08-09T02:57:25.271Z,13.44
2022-08-09T02:58:36.914Z,13.42
2022-08-09T02:59:36.467Z,13.41
2022-08-09T03:00:26.482Z,13.38
2022-08-09T03:01:29.339Z,13.38
2022-08-09T03:02:26.874Z,13.38
2022-08-09T03:04:13.847Z,13.38
2022-08-09T03:04:26.337Z,13.39
2022-08-09T03:05:25.005Z,13.38
2022-08-09T03:06:25.210Z,13.36
2022-08-09T03:07:24.753Z,13.38
2022-08-09T03:08:24.783Z,13.38
2022-08-09T03:09:24.826Z,13.39
2022-08-09T03:10:25.089Z,13.44
2022-08-09T03:12:04.896Z,13.45
2022-08-09T03:12:25.806Z,13.46
2022-08-09T03:13:24.674Z,13.51
2022-08-09T03:14:28.099Z,13.51
2022-08-09T03:15:24.670Z,13.51
2022-08-09T03:16:25.656Z,13.51
2022-08-09T03:17:27.176Z,13.48
2022-08-09T03:18:31.039Z,13.44
2022-08-09T03:19:59.454Z,13.38
2022-08-09T03:20:25.588Z,13.36
2022-08-09T03:21:25.754Z,13.30
2022-08-09T03:22:25.450Z,13.29
2022-08-09T03:23:25.568Z,13.26
2022-08-09T03:24:42.110Z,13.22
2022-08-09T03:25:56.979Z,13.20
2022-08-09T03:26:32.101Z,13.22
2022-08-09T03:27:25.531Z,13.23
2022-08-09T03:28:24.508Z,13.25
2022-08-09T03:29:24.870Z,13.23
2022-08-09T03:30:29.861Z,13.23
2022-08-09T03:31:25.458Z,13.22
2022-08-09T03:32:24.492Z,13.20
2022-08-09T03:33:24.451Z,13.20
2022-08-09T03:34:24.449Z,13.17
2022-08-09T03:36:11.185Z,13.17
2022-08-09T03:36:27.364Z,13.15
2022-08-09T03:37:56.707Z,13.12
2022-08-09T03:38:28.887Z,13.12
2022-08-09T03:39:28.718Z,13.11
2022-08-09T03:40:25.329Z,13.10
2022-08-09T03:41:29.913Z,13.08
2022-08-09T03:42:28.987Z,13.07
2022-08-09T03:43:25.308Z,13.05
2022-08-09T03:44:27.830Z,13.04
2022-08-09T03:46:13.527Z,13.04
2022-08-09T03:46:29.245Z,13.04
2022-08-09T03:47:25.507Z,13.03
2022-08-09T03:48:29.429Z,13.04
2022-08-09T03:49:25.255Z,13.01
2022-08-09T03:50:27.879Z,13.03
2022-08-09T03:51:57.276Z,13.01
2022-08-09T03:52:25.185Z,13.00
2022-08-09T03:53:24.206Z,12.97
2022-08-09T03:54:29.330Z,12.95
2022-08-09T03:55:25.145Z,12.95
2022-08-09T03:56:24.404Z,12.93
2022-08-09T03:57:24.204Z,12.96
2022-08-09T03:58:24.112Z,12.96
2022-08-09T03:59:27.683Z,12.97
2022-08-09T04:00:31.385Z,12.97
2022-08-09T04:01:24.993Z,12.97
2022-08-09T04:02:27.347Z,13.01
2022-08-09T04:03:35.246Z,13.00
2022-08-09T04:04:25.026Z,13.01
2022-08-09T04:05:26.999Z,13.05
2022-08-09T04:06:24.034Z,13.12
2022-08-09T04:07:24.370Z,13.14
2022-08-09T04:08:29.112Z,13.17
2022-08-09T04:09:41.606Z,13.19
2022-08-09T04:10:29.386Z,13.19
2022-08-09T04:11:25.086Z,13.17
2022-08-09T04:12:30.132Z,13.15
2022-08-09T04:13:26.463Z,13.15
2022-08-09T04:14:54.055Z,13.14
2022-08-09T04:15:42.728Z,13.12
2022-08-09T04:16:24.859Z,13.12
2022-08-09T04:17:23.871Z,13.14
2022-08-09T04:18:24.939Z,13.15
2022-08-09T04:19:42.638Z,13.14
2022-08-09T04:20:24.870Z,13.14
2022-08-09T04:21:23.839Z,13.11
2022-08-09T04:22:23.812Z,13.11
2022-08-09T04:23:24.951Z,13.08
2022-08-09T04:24:24.119Z,13.08
2022-08-09T04:25:23.775Z,13.07
2022-08-09T04:26:23.749Z,13.10
2022-08-09T04:27:23.738Z,13.10
2022-08-09T04:28:33.647Z,13.11
2022-08-09T04:29:24.759Z,13.12
2022-08-09T04:30:26.128Z,13.12
2022-08-09T04:31:24.422Z,13.14
2022-08-09T04:32:33.620Z,13.12
2022-08-09T04:33:28.703Z,13.14
2022-08-09T04:34:30.677Z,13.14
2022-08-09T04:35:25.105Z,13.19
2022-08-09T04:36:24.231Z,13.23
2022-08-09T04:37:23.657Z,13.28
2022-08-09T04:38:24.610Z,13.30
2022-08-09T04:39:24.131Z,13.36
2022-08-09T04:40:35.883Z,13.41
2022-08-09T04:41:32.514Z,13.42
2022-08-09T04:42:24.547Z,13.44
2022-08-09T04:43:25.230Z,13.46
2022-08-09T04:44:23.626Z,13.49
2022-08-09T04:45:23.884Z,13.51
2022-08-09T04:46:37.719Z,13.54
2022-08-09T04:47:24.535Z,13.57
2022-08-09T04:48:23.720Z,13.60
2022-08-09T04:49:40.726Z,13.60
2022-08-09T04:50:24.814Z,13.60
2022-08-09T04:51:24.458Z,13.63
2022-08-09T04:52:26.718Z,13.66
2022-08-09T04:53:23.414Z,13.69
2022-08-09T04:54:23.412Z,13.70
2022-08-09T04:55:23.388Z,13.73
2022-08-09T04:56:26.221Z,13.75
2022-08-09T04:57:24.533Z,13.79
2022-08-09T04:58:23.356Z,13.84
2022-08-09T04:59:23.336Z,13.87
2022-08-09T05:00:23.372Z,13.89
2022-08-09T05:01:23.321Z,13.92
2022-08-09T05:02:23.316Z,13.96
2022-08-09T05:03:41.156Z,13.97
2022-08-09T05:04:30.765Z,13.99
2022-08-09T05:05:32.495Z,14.02
2022-08-09T05:06:27.819Z,14.00
2022-08-09T05:07:23.230Z,14.02
2022-08-09T05:08:23.231Z,14.03
2022-08-09T05:09:24.210Z,14.07
2022-08-09T05:10:23.180Z,14.09
2022-08-09T05:11:23.521Z,14.14
2022-08-09T05:12:24.306Z,14.14
2022-08-09T05:13:23.179Z,14.15
2022-08-09T05:14:23.163Z,14.17
2022-08-09T05:15:24.724Z,14.20
2022-08-09T05:16:31.663Z,14.22
2022-08-09T05:18:42.264Z,14.25
2022-08-09T05:18:57.679Z,14.22
2022-08-09T05:19:26.069Z,14.28
2022-08-09T05:20:23.069Z,14.32
2022-08-09T05:21:29.688Z,14.35
2022-08-09T05:22:33.141Z,14.37
2022-08-09T05:23:58.181Z,14.42
2022-08-09T05:24:24.305Z,14.43
2022-08-09T05:25:23.017Z,14.43
2022-08-09T05:26:35.305Z,14.47
2022-08-09T05:27:23.997Z,14.50
2022-08-09T05:28:22.979Z,14.55
2022-08-09T05:29:24.282Z,14.58
2022-08-09T05:30:24.006Z,14.61
2022-08-09T05:31:37.156Z,14.64
2022-08-09T05:32:23.901Z,14.68
2022-08-09T05:33:26.337Z,14.69
2022-08-09T05:34:30.209Z,14.73
2022-08-09T05:35:23.909Z,14.77
2022-08-09T05:36:22.854Z,14.80
2022-08-09T05:37:24.258Z,14.84
2022-08-09T05:38:22.837Z,14.88
2022-08-09T05:39:29.012Z,14.92
2022-08-09T05:40:23.805Z,14.96
2022-08-09T05:41:22.785Z,14.99
2022-08-09T05:42:28.038Z,15.06
2022-08-09T05:43:23.751Z,15.09
2022-08-09T05:44:29.164Z,15.11
2022-08-09T05:45:24.844Z,15.13
2022-08-09T05:46:22.703Z,15.17
2022-08-09T05:47:23.271Z,15.19
2022-08-09T05:48:27.798Z,15.21
2022-08-09T05:50:23.375Z,15.25
2022-08-09T05:50:44.024Z,15.28
2022-08-09T05:51:43.056Z,15.31
2022-08-09T05:52:24.785Z,15.34
2022-08-09T05:53:33.423Z,15.39
2022-08-09T05:54:23.633Z,15.39
2022-08-09T05:55:23.933Z,15.43
2022-08-09T05:56:25.797Z,15.46
2022-08-09T05:57:25.139Z,15.49
2022-08-09T05:58:23.552Z,15.51
2022-08-09T05:59:22.580Z,15.54
2022-08-09T06:00:22.571Z,15.60
2022-08-09T06:01:22.519Z,15.65
2022-08-09T06:02:22.622Z,15.74
2022-08-09T06:03:22.981Z,15.78
2022-08-09T06:04:23.589Z,15.86
2022-08-09T06:05:50.215Z,15.93
2022-08-09T06:06:23.441Z,16.00
2022-08-09T06:07:22.801Z,16.07
2022-08-09T06:08:24.200Z,16.11
2022-08-09T06:09:40.839Z,16.12
2022-08-09T06:10:23.422Z,16.21
2022-08-09T06:11:24.426Z,16.25
2022-08-09T06:12:26.386Z,16.39
2022-08-09T06:13:22.359Z,16.85
2022-08-09T06:14:22.340Z,17.66
2022-08-09T06:15:22.501Z,18.50
2022-08-09T06:16:22.438Z,18.94
2022-08-09T06:17:22.337Z,19.36
2022-08-09T06:18:24.824Z,19.96
2022-08-09T06:19:22.279Z,20.47
2022-08-09T06:20:22.297Z,20.88
2022-08-09T06:21:22.245Z,21.31
2022-08-09T06:22:28.925Z,21.82
2022-08-09T06:23:23.668Z,22.22
2022-08-09T06:24:23.208Z,22.60
2022-08-09T06:25:22.257Z,22.79
2022-08-09T06:26:22.646Z,23.01
2022-08-09T06:27:23.198Z,23.25
2022-08-09T06:28:22.398Z,23.54
2022-08-09T06:29:23.139Z,23.93
2022-08-09T06:30:22.127Z,24.39
2022-08-09T06:31:30.453Z,24.50
2022-08-09T06:33:13.637Z,24.13
2022-08-09T06:33:39.926Z,23.85
2022-08-09T06:34:23.590Z,24.28
2022-08-09T06:35:22.068Z,24.67
2022-08-09T06:36:27.171Z,24.67
2022-08-09T06:37:22.108Z,24.91
2022-08-09T06:38:31.870Z,25.10
2022-08-09T06:39:23.072Z,24.85
2022-08-09T06:40:24.415Z,24.81
2022-08-09T06:41:22.039Z,24.91
2022-08-09T06:42:30.455Z,25.43
2022-08-09T06:43:22.949Z,25.85
2022-08-09T06:44:22.538Z,26.18
2022-08-09T06:46:04.720Z,26.62
2022-08-09T06:46:39.491Z,26.87
2022-08-09T06:47:23.750Z,26.82
2022-08-09T06:48:30.446Z,26.37
2022-08-09T06:49:44.687Z,25.80
2022-08-09T06:50:23.195Z,25.43
2022-08-09T06:51:21.876Z,25.35
2022-08-09T06:52:23.511Z,25.24
2022-08-09T06:53:21.819Z,25.39
2022-08-09T06:54:21.831Z,25.54
2022-08-09T06:55:23.957Z,25.40
2022-08-09T06:56:21.818Z,25.67
2022-08-09T06:57:25.764Z,25.95
2022-08-09T07:00:46.912Z,26.37
2022-08-09T07:00:51.631Z,26.85
2022-08-09T07:00:52.719Z,27.19
2022-08-09T07:01:24.289Z,27.44
2022-08-09T07:02:22.748Z,27.67
2022-08-09T07:03:26.983Z,27.66
2022-08-09T07:04:22.688Z,27.37
2022-08-09T07:05:21.668Z,26.91
2022-08-09T07:06:22.007Z,27.07
2022-08-09T07:07:58.768Z,27.39
2022-08-09T07:08:22.648Z,27.63
2022-08-09T07:09:53.412Z,27.93
2022-08-09T07:10:31.404Z,27.82
2022-08-09T07:11:25.269Z,27.67
2022-08-09T07:12:21.586Z,27.67
2022-08-09T07:13:28.081Z,27.87
2022-08-09T07:14:26.417Z,28.04
2022-08-09T07:16:36.113Z,27.97
2022-08-09T07:16:40.465Z,28.12
2022-08-09T07:17:22.969Z,28.27
2022-08-09T07:18:21.508Z,28.17
2022-08-09T07:19:23.584Z,28.21
2022-08-09T07:20:21.541Z,28.51
2022-08-09T07:21:21.808Z,29.08
2022-08-09T07:22:34.186Z,29.70
2022-08-09T07:23:22.841Z,30.16
2022-08-09T07:24:21.449Z,30.35
2022-08-09T07:25:22.422Z,30.67
2022-08-09T07:26:21.459Z,30.76
2022-08-09T07:27:33.062Z,30.47
2022-08-09T07:28:28.304Z,29.76
2022-08-09T07:29:22.642Z,28.70
2022-08-09T07:30:25.082Z,27.65
2022-08-09T07:31:21.353Z,27.19
2022-08-09T07:32:21.370Z,27.59
2022-08-09T07:33:21.788Z,28.12
2022-08-09T07:34:21.446Z,28.58
2022-08-09T07:35:21.355Z,28.96
2022-08-09T07:36:22.404Z,29.37
2022-08-09T07:37:22.047Z,29.27
2022-08-09T07:38:21.359Z,29.08
2022-08-09T07:39:41.576Z,29.24
2022-08-09T07:40:27.131Z,29.58
2022-08-09T07:41:22.231Z,29.78
2022-08-09T07:42:21.219Z,29.65
2022-08-09T07:43:22.278Z,29.26
2022-08-09T07:44:24.008Z,29.46
2022-08-09T07:45:23.738Z,29.58
2022-08-09T07:46:22.189Z,29.82
2022-08-09T07:47:21.312Z,30.24
2022-08-09T07:48:28.316Z,30.53
2022-08-09T07:49:22.230Z,30.62
2022-08-09T07:50:21.308Z,30.72
2022-08-09T07:52:03.517Z,30.57
2022-08-09T07:52:22.129Z,30.64
2022-08-09T07:53:45.073Z,30.60
2022-08-09T07:54:28.201Z,30.38
2022-08-09T07:55:22.561Z,30.39
2022-08-09T07:56:26.513Z,30.60
2022-08-09T07:57:22.050Z,30.70
2022-08-09T07:58:26.158Z,30.60
2022-08-09T07:59:34.790Z,30.60
2022-08-09T08:00:35.728Z,30.45
2022-08-09T08:01:22.037Z,29.98
2022-08-09T08:02:22.046Z,29.61
2022-08-09T08:03:20.971Z,29.52
2022-08-09T08:04:31.878Z,29.53
2022-08-09T08:05:21.990Z,29.33
2022-08-09T08:06:21.065Z,28.89
2022-08-09T08:08:42.387Z,28.88
2022-08-09T08:09:02.633Z,29.00
2022-08-09T08:09:35.513Z,29.45
2022-08-09T08:10:21.910Z,29.74
2022-08-09T08:12:11.047Z,29.80
2022-08-09T08:12:29.285Z,29.68
2022-08-09T08:13:22.628Z,29.87
2022-08-09T08:14:21.031Z,29.70
2022-08-09T08:15:23.153Z,30.20
2022-08-09T08:16:29.862Z,30.55
2022-08-09T08:17:35.533Z,30.39
2022-08-09T08:18:22.051Z,30.08
2022-08-09T08:19:20.781Z,29.95
2022-08-09T08:20:28.461Z,30.20
2022-08-09T08:21:22.138Z,30.65
2022-08-09T08:22:20.740Z,30.99
2022-08-09T08:23:21.712Z,30.73
2022-08-09T08:24:21.709Z,30.64
2022-08-09T08:25:20.744Z,30.67
2022-08-09T08:26:26.659Z,30.89
2022-08-09T08:27:22.690Z,31.14
2022-08-09T08:28:32.028Z,30.51
2022-08-09T08:29:28.124Z,30.22
2022-08-09T08:30:22.342Z,30.29
2022-08-09T08:31:20.633Z,30.54
2022-08-09T08:32:29.246Z,30.73
2022-08-09T08:33:24.013Z,30.92
2022-08-09T08:34:21.010Z,31.25
2022-08-09T08:35:22.229Z,31.17
2022-08-09T08:36:28.407Z,30.92
2022-08-09T08:37:21.553Z,30.65
2022-08-09T08:38:20.650Z,30.92
2022-08-09T08:39:22.070Z,31.02
2022-08-09T08:40:20.562Z,30.80
2022-08-09T08:41:20.620Z,30.64
2022-08-09T08:42:24.307Z,29.57
2022-08-09T08:43:23.149Z,28.71
2022-08-09T08:44:27.182Z,27.92
2022-08-09T08:45:37.138Z,27.43
2022-08-09T08:46:32.491Z,27.03
2022-08-09T08:47:21.460Z,26.85
2022-08-09T08:48:21.432Z,26.85
2022-08-09T08:49:20.433Z,26.69
2022-08-09T08:50:20.844Z,26.47
2022-08-09T08:51:20.422Z,26.50
2022-08-09T08:52:53.100Z,26.51
2022-08-09T08:53:21.784Z,26.54
2022-08-09T08:54:29.752Z,26.54
2022-08-09T08:55:23.505Z,26.62
2022-08-09T08:56:28.241Z,26.72
2022-08-09T08:57:21.339Z,26.73
2022-08-09T08:58:27.152Z,26.67
2022-08-09T08:59:21.360Z,26.58
2022-08-09T09:00:27.562Z,26.54
2022-08-09T09:01:24.737Z,26.60
2022-08-09T09:02:30.714Z,26.57
2022-08-09T09:03:22.943Z,26.45
2022-08-09T09:04:26.967Z,26.28
2022-08-09T09:05:22.727Z,26.32
2022-08-09T09:06:21.229Z,26.30
2022-08-09T09:07:20.472Z,26.43
2022-08-09T09:08:30.893Z,26.58
2022-08-09T09:09:58.456Z,26.65
2022-08-09T09:10:21.241Z,26.73
2022-08-09T09:11:20.232Z,26.89
2022-08-09T09:12:20.182Z,26.92
2022-08-09T09:13:20.582Z,26.75
2022-08-09T09:14:20.149Z,26.60
2022-08-09T09:15:28.260Z,26.65
2022-08-09T09:16:30.275Z,26.60
2022-08-09T09:17:21.433Z,26.58
2022-08-09T09:18:20.102Z,26.45
2022-08-09T09:19:40.895Z,26.48
2022-08-09T09:20:21.289Z,26.48
2022-08-09T09:21:25.942Z,26.47
2022-08-09T09:22:26.550Z,26.28
2022-08-09T09:23:21.128Z,26.28
2022-08-09T09:24:21.487Z,26.37
2022-08-09T09:26:01.566Z,26.47
2022-08-09T09:26:20.962Z,26.60
2022-08-09T09:28:03.035Z,26.72
2022-08-09T09:28:21.300Z,26.87
2022-08-09T09:29:21.603Z,26.84
2022-08-09T09:30:38.664Z,26.89
2022-08-09T09:32:03.604Z,26.82
2022-08-09T09:32:21.072Z,26.66
2022-08-09T09:33:20.843Z,26.52
2022-08-09T09:34:19.873Z,26.60
2022-08-09T09:35:19.830Z,26.62
2022-08-09T09:36:21.184Z,26.63
2022-08-09T09:37:20.172Z,26.73
2022-08-09T09:38:36.356Z,26.84
2022-08-09T09:39:20.823Z,26.87
2022-08-09T09:40:19.883Z,26.92
2022-08-09T09:41:19.963Z,26.92
2022-08-09T09:42:20.413Z,27.03
2022-08-09T09:43:20.341Z,27.10
2022-08-09T09:44:25.413Z,27.13
2022-08-09T09:45:26.744Z,27.00
2022-08-09T09:46:43.372Z,26.88
2022-08-09T09:47:21.391Z,26.81
2022-08-09T09:48:20.362Z,26.87
2022-08-09T09:49:23.559Z,26.77
2022-08-09T09:50:23.151Z,26.65
2022-08-09T09:51:38.222Z,26.82
2022-08-09T09:52:36.470Z,27.02
2022-08-09T09:53:21.034Z,27.09
2022-08-09T09:54:21.210Z,27.22
2022-08-09T09:55:28.492Z,27.18
2022-08-09T09:56:31.442Z,27.17
2022-08-09T09:58:01.050Z,27.18
2022-08-09T09:58:20.572Z,27.22
2022-08-09T09:59:19.942Z,27.14
2022-08-09T10:00:19.501Z,27.13
2022-08-09T10:01:31.352Z,27.09
2022-08-09T10:02:20.493Z,27.19
2022-08-09T10:03:19.500Z,27.36
2022-08-09T10:04:30.399Z,27.49
2022-08-09T10:05:26.855Z,27.59
2022-08-09T10:06:20.722Z,27.60
2022-08-09T10:07:20.069Z,27.74
2022-08-09T10:08:28.531Z,27.84
2022-08-09T10:09:23.387Z,27.97
2022-08-09T10:10:19.771Z,27.90
2022-08-09T10:12:00.815Z,27.84
2022-08-09T10:12:28.667Z,27.82
2022-08-09T10:13:23.244Z,27.87
2022-08-09T10:14:30.994Z,27.97
2022-08-09T10:15:25.525Z,28.07
2022-08-09T10:16:58.073Z,28.07
2022-08-09T10:17:50.354Z,27.81
2022-08-09T10:18:20.264Z,27.78
2022-08-09T10:19:19.241Z,27.81
2022-08-09T10:20:27.216Z,27.87
2022-08-09T10:21:20.901Z,28.02
2022-08-09T10:22:29.462Z,28.02
2022-08-09T10:23:21.155Z,28.03
2022-08-09T10:24:25.750Z,28.03
2022-08-09T10:25:21.575Z,28.02
2022-08-09T10:26:19.412Z,28.07
2022-08-09T10:27:26.220Z,28.18
2022-08-09T10:28:20.290Z,28.30
2022-08-09T10:29:33.711Z,28.41
2022-08-09T10:32:03.792Z,28.51
2022-08-09T10:32:38.556Z,28.62
2022-08-09T10:34:04.327Z,28.22
2022-08-09T10:34:33.910Z,27.96
2022-08-09T10:35:20.061Z,27.84
2022-08-09T10:36:20.492Z,27.88
2022-08-09T10:37:19.041Z,27.87
2022-08-09T10:38:34.055Z,27.87
2022-08-09T10:39:20.082Z,27.81
2022-08-09T10:40:34.757Z,27.87
2022-08-09T10:41:20.621Z,28.00
2022-08-09T10:42:18.989Z,28.19
2022-08-09T10:43:18.970Z,28.31
2022-08-09T10:44:19.118Z,28.41
2022-08-09T10:45:19.051Z,28.59
2022-08-09T10:46:23.375Z,28.54
2022-08-09T10:48:26.218Z,28.44
2022-08-09T10:48:30.801Z,28.43
2022-08-09T10:49:19.935Z,28.22
2022-08-09T10:50:20.896Z,28.24
2022-08-09T10:51:19.829Z,28.29
2022-08-09T10:52:20.485Z,28.36
2022-08-09T10:53:18.800Z,28.48
2022-08-09T10:54:19.135Z,28.41
2022-08-09T10:55:18.777Z,28.39
2022-08-09T10:56:22.809Z,28.51
2022-08-09T10:57:18.778Z,28.61
2022-08-09T10:58:25.570Z,28.61
2022-08-09T10:59:20.159Z,28.64
2022-08-09T11:00:18.710Z,28.64
2022-08-09T11:03:11.244Z,28.48
2022-08-09T11:03:27.028Z,28.52
2022-08-09T11:03:27.198Z,28.58
2022-08-09T11:04:31.344Z,28.62
2022-08-09T11:05:25.062Z,28.62
2022-08-09T11:06:19.651Z,28.66
2022-08-09T11:07:18.650Z,28.54
2022-08-09T11:08:18.610Z,28.49
2022-08-09T11:09:20.050Z,28.46
2022-08-09T11:10:18.653Z,28.51
2022-08-09T11:11:18.560Z,28.56
2022-08-09T11:12:18.579Z,28.62
2022-08-09T11:13:49.916Z,28.66
2022-08-09T11:14:19.581Z,28.54
2022-08-09T11:15:19.519Z,28.48
2022-08-09T11:16:35.170Z,28.62
2022-08-09T11:17:21.121Z,28.78
2022-08-09T11:18:18.495Z,28.89
2022-08-09T11:19:18.920Z,28.88
2022-08-09T11:20:22.562Z,28.71
2022-08-09T11:21:18.481Z,28.74
2022-08-09T11:22:24.282Z,28.81
2022-08-09T11:23:24.223Z,28.70
2022-08-09T11:24:19.430Z,28.68
2022-08-09T11:25:18.420Z,28.71
2022-08-09T11:26:20.957Z,28.76
2022-08-09T11:27:18.370Z,28.80
2022-08-09T11:28:30.819Z,28.81
2022-08-09T11:29:19.521Z,28.86
2022-08-09T11:30:32.027Z,28.90
2022-08-09T11:31:33.720Z,28.77
2022-08-09T11:32:19.320Z,28.71
2022-08-09T11:33:18.679Z,28.73
2022-08-09T11:34:18.299Z,28.83
2022-08-09T11:35:18.280Z,28.83
2022-08-09T11:36:30.337Z,28.89
2022-08-09T11:37:19.248Z,28.93
2022-08-09T11:38:18.221Z,28.98
2022-08-09T11:39:18.661Z,29.04
2022-08-09T11:40:18.203Z,29.02
2022-08-09T11:41:18.171Z,29.05
2022-08-09T11:42:20.969Z,29.16
2022-08-09T11:43:18.601Z,29.15
2022-08-09T11:44:18.139Z,29.24
2022-08-09T11:45:18.174Z,29.31
2022-08-09T11:46:26.677Z,29.36
2022-08-09T11:47:19.279Z,29.41
2022-08-09T11:48:26.718Z,29.41
2022-08-09T11:49:28.157Z,29.24
2022-08-09T11:50:55.020Z,29.26
2022-08-09T11:52:49.124Z,29.33
2022-08-09T11:53:03.529Z,29.19
2022-08-09T11:53:58.485Z,29.16
2022-08-09T11:54:28.946Z,29.21
2022-08-09T11:55:34.670Z,29.12
2022-08-09T11:56:19.364Z,29.09
2022-08-09T11:57:17.990Z,28.98
2022-08-09T11:58:41.090Z,29.02
2022-08-09T11:59:18.958Z,29.06
2022-08-09T12:00:26.265Z,29.04
2022-08-09T12:02:16.110Z,29.11
2022-08-09T12:02:37.112Z,29.19
2022-08-09T12:03:54.762Z,29.27
2022-08-09T12:04:20.907Z,29.12
2022-08-09T12:05:22.905Z,29.04
2022-08-09T12:06:17.868Z,29.21
2022-08-09T12:07:18.987Z,29.37
2022-08-09T12:08:21.679Z,29.58
2022-08-09T12:09:21.170Z,29.74
2022-08-09T12:10:38.845Z,29.80
2022-08-09T12:11:18.817Z,29.83
2022-08-09T12:12:20.387Z,29.83
2022-08-09T12:14:09.658Z,29.87
2022-08-09T12:14:37.206Z,30.07
2022-08-09T12:15:18.806Z,30.04
2022-08-09T12:16:37.154Z,29.95
2022-08-09T12:17:27.838Z,29.87
2022-08-09T12:18:30.058Z,29.85
2022-08-09T12:19:18.681Z,29.80
2022-08-09T12:20:22.007Z,29.61
2022-08-09T12:21:28.342Z,29.39
2022-08-09T12:22:19.677Z,29.36
2022-08-09T12:23:58.079Z,29.36
2022-08-09T12:24:18.663Z,29.27
2022-08-09T12:25:17.613Z,29.37
2022-08-09T12:26:25.896Z,29.49
2022-08-09T12:28:58.725Z,29.43
2022-08-09T12:29:13.652Z,29.46
2022-08-09T12:29:33.445Z,29.57
2022-08-09T12:30:36.675Z,29.73
2022-08-09T12:31:30.847Z,29.83
2022-08-09T12:32:18.941Z,29.82
2022-08-09T12:33:21.140Z,29.82
2022-08-09T12:34:17.530Z,29.64
2022-08-09T12:35:21.589Z,29.71
2022-08-09T12:36:31.915Z,29.83
2022-08-09T12:37:24.229Z,30.00
2022-08-09T12:38:37.639Z,30.07
2022-08-09T12:39:18.533Z,30.01
2022-08-09T12:40:17.673Z,29.89
2022-08-09T12:41:21.200Z,29.86
2022-08-09T12:42:17.499Z,29.89
2022-08-09T12:43:17.590Z,29.98
2022-08-09T12:44:18.413Z,30.19
2022-08-09T12:45:34.056Z,30.34
2022-08-09T12:46:18.407Z,30.55
2022-08-09T12:47:17.362Z,30.58
2022-08-09T12:48:31.180Z,30.49
2022-08-09T12:49:18.345Z,30.39
2022-08-09T12:50:17.356Z,30.45
2022-08-09T12:51:52.303Z,30.58
2022-08-09T12:52:18.268Z,30.60
2022-08-09T12:53:19.464Z,30.69
2022-08-09T12:54:17.738Z,30.73